AirNav   Everest Fuels
 
 1666 users online  

28CA Dos Palos Airport
Dos Palos, California, USA

GOING TO DOS PALOS?


FAA INFORMATION EFFECTIVE 02 JANUARY 2020

Location

FAA Identifier: 28CA
Lat/Long: 36-57-44.8100N 120-37-48.6580W
36-57.746833N 120-37.810967W
36.9624472,-120.6301828
(estimated)
Elevation: 118 ft. / 36.0 m (surveyed)
Variation: 15E (1985)
From city: 2 miles S of DOS PALOS, CA
Time zone: UTC -8 (UTC -7 during Daylight Saving Time)
Zip code: 93620

Airport Operations

Airport use: Private use. Permission required prior to landing
Activation date: 12/1945
Control tower: no
ARTCC: OAKLAND CENTER
FSS: RANCHO MURIETA FLIGHT SERVICE STATION
Attendance: MON-FRI 0800-1700, ALL SAT 0800-1200
Pattern altitude: 918 ft. MSL
Wind indicator: yes
Segmented circle: no

Airport Communications

WX AWOS-3 at LSN (13 nm NW): 118.675 (209-827-7084)

Nearby radio navigation aids

VOR radial/distance  VOR name  Freq  Var
PXNr010/16.4PANOCHE VORTAC112.6016E
HYPr201/18.9EL NIDO VOR/DME114.2015E
CZQr262/39.4CLOVIS VORTAC112.9015E

Airport Services

Airframe service: NONE
Powerplant service: NONE
Bottled oxygen: NONE
Bulk oxygen: NONE

Runway Information

Runway 13/31

Dimensions: 2210 x 60 ft. / 674 x 18 m
Surface: dirt, in good condition
RUNWAY 13  RUNWAY 31
Traffic pattern: leftleft
Markings: nonenone
Runway end identifier lights: nono
Obstructions: 15 ft. road, 300 ft. from runway, 20:1 slope to clear15 ft. road, 80 ft. from runway, 4:1 slope to clear

Airport Ownership and Management from official FAA records

Ownership: Privately-owned
Owner: SPAIN AIR INC.
BOX 217
DOS PALOS, CA 93620
Phone 209-392-2120
Manager: RANDY SPAIN
BOX 217
DOS PALOS, CA 93620
Phone 209-392-2120

Airport Operational Statistics

Aircraft operations: avg 36/day *
98% local general aviation
2% transient general aviation
* for 12-month period ending 01 August 1984

Additional Remarks

RWY 13/31 UNUSABLE WHEN WET.
RWY 13/31 MARKED WITH R'S.
FOR CD CTC NORCAL APCH AT 916-361-0516.

Instrument Procedures

There are no published instrument procedures at 28CA.

Some nearby airports with instrument procedures:

F34 - Firebaugh Airport (10 nm SE)
KLSN - Los Banos Municipal Airport (13 nm NW)
KMCE - Merced Regional Airport/Macready Field (20 nm N)
KMAE - Madera Municipal Airport (25 nm E)
KMER - Castle Airport (25 nm N)
 
Loc | Ops | Rwys | IFR | FBO | Links
Com | Nav | Svcs | Stats | Notes
Area around 28CA (Dos Palos Airport)
 
Road maps at: MapQuest Bing Google
 
Aerial photo
No photo
 
Sectional chart

 
Airport distance calculator
Flying to Dos Palos Airport? Find the distance to fly.

From to 28CA

Sunrise and sunset
Times for 23-Jan-2020
 Local
(UTC-8)
 Zulu
(UTC)
Morning civil twilight06:4414:44
Sunrise07:1215:12
Sunset17:1701:17
Evening civil twilight17:4501:45

Current date and time
Zulu (UTC)  23-Jan-2020 21:51:44
Local (UTC-8)  23-Jan-2020 13:51:44
 
METAR
KMCE 
20nm N 
232118Z AUTO 00000KT 10SM FEW020 14/10 A3019 RMK AO2 T01440100
KMAE 
25nm E 
232053Z AUTO 00000KT 10SM SCT019 15/09 A3021 RMK AO2 SLP227 T01500094 58024
KMER 
25nm N 
232045Z 00000KT 8SM SCT050 17/13 A3020 HZ
KCVH 
38nm W 
232140Z AUTO 01006KT 10SM CLR 18/11 A3015 RMK A01
TAF
KMCE 
20nm N 
231740Z 2318/2418 VRB03KT P6SM OVC020 FM232100 VRB03KT P6SM SCT022 OVC120 FM240600 VRB03KT 5SM BR SCT250 FM241200 32003KT 2SM BR OVC020
NOTAMs
Click for the latest NOTAMs
NOTAMs are issued by the DoD/FAA and will open in a separate window not controlled by AirNav.

 

 
 

Would you like to see your business listed on this page?

 If your business provides an interesting product or service to pilots, flight crews, aircraft, or users of the Dos Palos Airport, you should consider listing it here.  To start the listing process, click on the button below
 
Add a business
 

Other Pages about Dos Palos Airport

Update a link
 
Copyright © AirNav, LLC. All rights reserved. Privacy Policy  Contact